createdAt,value
2022-11-27T00:01:39.494Z,29.73
2022-11-27T00:04:10.644Z,35.88
2022-11-27T00:06:41.793Z,33.88
2022-11-27T00:09:14.046Z,31.63
2022-11-27T00:11:44.203Z,36.72
2022-11-27T00:14:16.689Z,36.28
2022-11-27T00:16:46.971Z,34.45
2022-11-27T00:19:16.408Z,42.78
2022-11-27T00:21:46.660Z,33.90
2022-11-27T00:24:15.965Z,37.85
2022-11-27T00:26:47.077Z,35.15
2022-11-27T00:29:18.344Z,39.45
2022-11-27T00:31:47.970Z,42.08
2022-11-27T00:34:17.277Z,35.22
2022-11-27T00:36:48.400Z,36.60
2022-11-27T00:39:18.060Z,39.70
2022-11-27T00:41:47.867Z,38.00
2022-11-27T00:44:18.900Z,38.33
2022-11-27T00:46:48.875Z,35.85
2022-11-27T00:49:18.505Z,42.83
2022-11-27T00:51:50.576Z,40.92
2022-11-27T00:54:22.664Z,38.30
2022-11-27T00:56:55.754Z,36.13
2022-11-27T00:59:26.921Z,41.65
2022-11-27T01:01:57.235Z,43.53
2022-11-27T01:04:26.506Z,42.33
2022-11-27T01:06:56.987Z,41.70
2022-11-27T01:09:26.290Z,40.90
2022-11-27T01:11:56.140Z,45.75
2022-11-27T01:14:26.836Z,42.72
2022-11-27T01:19:25.832Z,44.80
2022-11-27T01:21:55.675Z,37.13
2022-11-27T01:24:25.044Z,43.10
2022-11-27T01:26:54.819Z,44.72
2022-11-27T01:29:24.300Z,44.60
2022-11-27T01:31:55.957Z,39.53
2022-11-27T01:34:25.267Z,42.50
2022-11-27T01:36:55.074Z,41.60
2022-11-27T01:39:25.230Z,38.25
2022-11-27T01:41:55.509Z,38.53
2022-11-27T01:44:55.012Z,34.35
2022-11-27T01:47:39.294Z,33.13
2022-11-27T01:50:13.835Z,36.53
2022-11-27T01:52:48.376Z,36.22
2022-11-27T01:55:23.308Z,33.72
2022-11-27T01:57:58.441Z,32.28
2022-11-27T02:00:28.242Z,29.20
2022-11-27T02:02:59.802Z,33.97
2022-11-27T02:08:02.007Z,33.28
2022-11-27T02:10:42.011Z,29.35
2022-11-27T02:13:15.599Z,29.60
2022-11-27T02:15:48.964Z,32.63
2022-11-27T02:18:27.110Z,26.98
2022-11-27T02:21:04.974Z,29.23
2022-11-27T02:24:00.244Z,24.50
2022-11-27T02:26:47.088Z,27.67
2022-11-27T02:29:21.203Z,28.13
2022-11-27T02:31:58.966Z,27.67
2022-11-27T02:34:33.776Z,24.98
2022-11-27T02:37:09.234Z,25.98
2022-11-27T02:39:42.865Z,27.70
2022-11-27T02:42:17.607Z,25.33
2022-11-27T02:44:52.561Z,24.00
2022-11-27T02:47:22.922Z,28.95
2022-11-27T02:49:57.351Z,23.58
2022-11-27T02:52:29.444Z,23.00
2022-11-27T02:55:04.612Z,26.75
2022-11-27T02:57:36.124Z,21.90
2022-11-27T03:00:09.165Z,27.33
2022-11-27T03:02:43.183Z,21.80
2022-11-27T03:05:16.907Z,20.05
2022-11-27T03:07:51.307Z,21.73
2022-11-27T03:10:25.776Z,20.25
2022-11-27T03:12:55.115Z,17.75
2022-11-27T03:15:27.592Z,22.13
2022-11-27T03:18:03.942Z,19.67
2022-11-27T03:20:38.508Z,15.68
2022-11-27T03:23:07.930Z,16.98
2022-11-27T03:25:37.931Z,17.77
2022-11-27T03:28:10.322Z,19.35
2022-11-27T03:30:42.645Z,21.58
2022-11-27T03:33:12.127Z,18.58
2022-11-27T03:35:41.959Z,18.40
2022-11-27T03:38:11.256Z,21.95
2022-11-27T03:40:47.758Z,22.63
2022-11-27T03:43:24.187Z,22.35
2022-11-27T03:46:01.794Z,25.92
2022-11-27T03:48:37.051Z,27.55
2022-11-27T03:51:13.998Z,23.25
2022-11-27T03:53:53.199Z,28.40
2022-11-27T03:56:33.575Z,22.55
2022-11-27T03:59:06.204Z,29.95
2022-11-27T04:01:37.791Z,27.05
2022-11-27T04:04:07.309Z,25.02
2022-11-27T04:06:37.019Z,28.58
2022-11-27T04:09:06.487Z,27.58
2022-11-27T04:11:36.092Z,29.73
2022-11-27T04:14:05.597Z,29.60
2022-11-27T04:16:37.273Z,31.90
2022-11-27T04:21:36.354Z,26.70
2022-11-27T04:24:05.799Z,29.20
2022-11-27T04:26:35.667Z,30.98
2022-11-27T04:29:04.999Z,31.67
2022-11-27T04:31:34.926Z,30.77
2022-11-27T04:34:05.769Z,30.33
2022-11-27T04:36:39.182Z,32.85
2022-11-27T04:39:09.167Z,31.67
2022-11-27T04:41:38.976Z,34.45
2022-11-27T04:44:08.427Z,30.50
2022-11-27T04:46:38.714Z,29.35
2022-11-27T04:49:11.179Z,36.22
2022-11-27T04:51:41.228Z,30.90
2022-11-27T04:54:10.788Z,29.27
2022-11-27T04:56:40.900Z,33.60
2022-11-27T04:59:10.224Z,31.17
2022-11-27T05:01:40.706Z,28.17
2022-11-27T05:04:11.633Z,29.75
2022-11-27T05:06:41.995Z,32.78
2022-11-27T05:09:11.317Z,40.38
2022-11-27T05:11:41.281Z,38.30
2022-11-27T05:14:17.257Z,32.95
2022-11-27T05:16:48.921Z,33.05
2022-11-27T05:19:21.499Z,31.48
2022-11-27T05:21:52.523Z,34.55
2022-11-27T05:24:24.226Z,40.65
2022-11-27T05:26:54.312Z,38.88
2022-11-27T05:29:24.635Z,37.60
2022-11-27T05:34:25.732Z,39.00
2022-11-27T05:36:55.447Z,39.17
2022-11-27T05:39:25.069Z,37.67
2022-11-27T05:41:55.148Z,32.50
2022-11-27T05:44:24.498Z,35.47
2022-11-27T05:46:54.640Z,33.22
2022-11-27T05:49:25.944Z,36.33
2022-11-27T05:51:56.048Z,35.95
2022-11-27T05:54:25.654Z,31.13
2022-11-27T05:56:55.667Z,39.38
2022-11-27T05:59:24.914Z,42.15
2022-11-27T06:01:54.905Z,37.15
2022-11-27T06:04:25.744Z,34.65
2022-11-27T06:06:55.511Z,37.88
2022-11-27T06:09:24.843Z,38.55
2022-11-27T06:11:55.020Z,39.40
2022-11-27T06:14:24.498Z,41.08
2022-11-27T06:16:54.118Z,40.35
2022-11-27T06:19:25.094Z,42.13
2022-11-27T06:21:55.036Z,39.17
2022-11-27T06:24:24.435Z,40.03
2022-11-27T06:26:54.438Z,40.25
2022-11-27T06:29:23.855Z,41.25
2022-11-27T06:31:54.120Z,38.83
2022-11-27T06:34:24.992Z,43.20
2022-11-27T06:36:54.773Z,44.85
2022-11-27T06:39:24.032Z,42.38
2022-11-27T06:41:53.879Z,40.75
2022-11-27T06:44:23.291Z,46.45
2022-11-27T06:46:52.900Z,36.35
2022-11-27T06:49:22.365Z,41.60
2022-11-27T06:51:53.810Z,43.53
2022-11-27T06:54:23.590Z,39.95
2022-11-27T06:56:53.892Z,39.20
2022-11-27T06:59:23.223Z,34.95
2022-11-27T07:01:53.154Z,35.50
2022-11-27T07:04:22.532Z,34.47
2022-11-27T07:06:56.623Z,36.85
2022-11-27T07:09:25.907Z,37.97
2022-11-27T07:11:55.483Z,31.77
2022-11-27T07:14:25.091Z,42.67
2022-11-27T07:16:54.934Z,42.10
2022-11-27T07:19:24.214Z,33.92
2022-11-27T07:21:55.468Z,38.53
2022-11-27T07:24:24.984Z,40.42
2022-11-27T07:26:54.856Z,37.40
2022-11-27T07:29:24.827Z,35.50
2022-11-27T07:31:55.210Z,43.05
2022-11-27T07:34:24.860Z,37.75
2022-11-27T07:36:56.103Z,35.85
2022-11-27T07:39:39.697Z,41.35
2022-11-27T07:45:04.335Z,33.50
2022-11-27T07:47:34.282Z,29.48
2022-11-27T07:50:03.755Z,33.47
2022-11-27T07:52:41.125Z,35.88
2022-11-27T07:55:12.114Z,32.97
2022-11-27T07:57:42.718Z,39.67
2022-11-27T08:00:13.028Z,35.25
2022-11-27T08:02:42.858Z,36.60
2022-11-27T08:05:13.370Z,27.35
2022-11-27T08:10:13.756Z,36.63
2022-11-27T08:12:43.696Z,27.80
2022-11-27T08:15:13.415Z,26.25
2022-11-27T08:17:43.389Z,28.83
2022-11-27T08:20:13.085Z,30.92
2022-11-27T08:22:44.210Z,26.27
2022-11-27T08:25:14.182Z,21.10
2022-11-27T08:27:43.870Z,27.73
2022-11-27T08:30:13.801Z,31.30
2022-11-27T08:32:44.226Z,31.48
2022-11-27T08:35:13.979Z,26.75
2022-11-27T08:37:45.487Z,24.05
2022-11-27T08:42:44.024Z,26.85
2022-11-27T08:45:13.693Z,25.75
2022-11-27T08:47:44.006Z,24.27
2022-11-27T08:50:13.603Z,24.98
2022-11-27T08:52:44.851Z,25.27
2022-11-27T08:55:14.094Z,23.15
2022-11-27T08:57:44.060Z,21.40
2022-11-27T09:00:14.465Z,24.90
2022-11-27T09:02:44.112Z,22.67
2022-11-27T09:05:13.544Z,23.65
2022-11-27T09:07:44.764Z,20.70
2022-11-27T09:10:14.359Z,23.95
2022-11-27T09:12:44.831Z,21.75
2022-11-27T09:15:14.684Z,29.47
2022-11-27T09:17:44.657Z,23.85
2022-11-27T09:20:16.366Z,24.55
2022-11-27T09:22:47.991Z,21.95
2022-11-27T09:27:47.574Z,18.10
2022-11-27T09:30:17.498Z,25.17
2022-11-27T09:32:47.470Z,22.67
2022-11-27T09:35:16.991Z,22.02
2022-11-27T09:37:48.103Z,20.67
2022-11-27T09:40:19.115Z,26.00
2022-11-27T09:42:55.587Z,22.95
2022-11-27T09:45:27.197Z,23.50
2022-11-27T09:48:00.156Z,27.08
2022-11-27T09:50:33.055Z,21.48
2022-11-27T09:53:12.684Z,23.98
2022-11-27T09:55:46.851Z,22.77
2022-11-27T09:58:20.187Z,25.45
2022-11-27T10:00:50.151Z,25.45
2022-11-27T10:03:25.060Z,27.92
2022-11-27T10:06:04.933Z,32.17
2022-11-27T10:08:42.378Z,35.63
2022-11-27T10:11:25.064Z,29.58
2022-11-27T10:14:06.263Z,31.05
2022-11-27T10:16:44.586Z,35.97
2022-11-27T10:19:28.432Z,34.72
2022-11-27T10:22:01.677Z,33.60
2022-11-27T10:24:42.377Z,36.95
2022-11-27T10:27:18.737Z,31.83
2022-11-27T10:29:53.703Z,31.40
2022-11-27T10:35:18.541Z,35.05
2022-11-27T10:37:50.808Z,33.53
2022-11-27T10:40:25.800Z,32.53
2022-11-27T10:43:04.961Z,33.20
2022-11-27T10:45:45.604Z,32.40
2022-11-27T10:48:15.796Z,32.40
2022-11-27T10:53:25.342Z,38.08
2022-11-27T10:56:15.930Z,33.78
2022-11-27T10:58:52.619Z,33.75
2022-11-27T11:01:23.465Z,26.25
2022-11-27T11:04:24.244Z,29.95
2022-11-27T11:06:55.939Z,32.38
2022-11-27T11:09:27.667Z,32.50
2022-11-27T11:12:09.247Z,28.40
2022-11-27T11:14:39.011Z,27.33
2022-11-27T11:17:17.904Z,29.60
2022-11-27T11:19:47.482Z,30.65
2022-11-27T11:22:18.623Z,32.85
2022-11-27T11:24:49.989Z,31.55
2022-11-27T11:27:27.707Z,39.33
2022-11-27T11:30:01.039Z,37.70
2022-11-27T11:32:34.016Z,38.78
2022-11-27T11:35:06.584Z,35.00
2022-11-27T11:37:37.706Z,35.50
2022-11-27T11:40:14.794Z,30.63
2022-11-27T11:42:55.235Z,38.92
2022-11-27T11:45:28.556Z,32.55
2022-11-27T11:48:02.121Z,33.53
2022-11-27T11:50:38.936Z,30.42
2022-11-27T11:53:17.029Z,35.38
2022-11-27T11:56:01.501Z,35.10
2022-11-27T11:58:51.053Z,28.83
2022-11-27T12:01:40.121Z,33.78
2022-11-27T12:04:22.233Z,30.75
2022-11-27T12:07:02.146Z,25.85
2022-11-27T12:09:42.193Z,24.70
2022-11-27T12:12:23.362Z,26.63
2022-11-27T12:15:00.725Z,26.02
2022-11-27T12:17:43.977Z,29.08
2022-11-27T12:20:22.972Z,27.00
2022-11-27T12:23:39.070Z,25.52
2022-11-27T12:26:18.491Z,24.95
2022-11-27T12:28:59.740Z,27.38
2022-11-27T12:31:46.350Z,26.27
2022-11-27T12:34:23.017Z,21.77
2022-11-27T12:37:12.516Z,22.15
2022-11-27T12:39:56.947Z,22.13
2022-11-27T12:42:30.705Z,19.90
2022-11-27T12:45:05.559Z,21.08
2022-11-27T12:47:43.606Z,22.35
2022-11-27T12:50:23.601Z,27.55
2022-11-27T12:53:01.541Z,20.80
2022-11-27T12:55:35.239Z,17.88
2022-11-27T12:58:07.767Z,17.83
2022-11-27T13:00:41.360Z,18.77
2022-11-27T13:03:19.937Z,16.27
2022-11-27T13:05:55.370Z,15.40
2022-11-27T13:08:28.623Z,16.67
2022-11-27T13:11:02.815Z,18.52
2022-11-27T13:13:38.866Z,15.23
2022-11-27T13:16:13.188Z,18.98
2022-11-27T13:18:51.229Z,17.40
2022-11-27T13:21:24.566Z,20.50
2022-11-27T13:23:54.932Z,17.63
2022-11-27T13:26:29.065Z,22.42
2022-11-27T13:29:02.278Z,20.52
2022-11-27T13:31:35.667Z,20.20
2022-11-27T13:34:12.918Z,21.58
2022-11-27T13:36:45.030Z,20.17
2022-11-27T13:39:25.553Z,22.52
2022-11-27T13:42:06.250Z,24.33
2022-11-27T13:44:39.808Z,21.73
2022-11-27T13:47:14.055Z,25.00
2022-11-27T13:49:46.676Z,22.45
2022-11-27T13:52:19.441Z,26.13
2022-11-27T13:54:56.171Z,25.98
2022-11-27T13:57:26.291Z,24.92
2022-11-27T14:02:41.690Z,28.67
2022-11-27T14:05:14.807Z,29.67
2022-11-27T14:07:47.727Z,28.67
2022-11-27T14:10:20.289Z,26.48
2022-11-27T14:12:55.266Z,35.35
2022-11-27T14:15:27.897Z,38.85
2022-11-27T14:18:09.181Z,35.33
2022-11-27T14:20:49.704Z,36.33
2022-11-27T14:23:30.448Z,40.97
2022-11-27T14:26:14.707Z,32.05
2022-11-27T14:28:46.748Z,29.15
2022-11-27T14:31:29.470Z,30.50
2022-11-27T14:34:20.814Z,31.65
2022-11-27T14:36:55.569Z,40.90
2022-11-27T14:39:27.336Z,35.60
2022-11-27T14:42:01.897Z,35.40
2022-11-27T14:44:31.827Z,46.28
2022-11-27T14:47:04.320Z,37.85
2022-11-27T14:49:35.598Z,32.45
2022-11-27T14:52:09.010Z,34.92
2022-11-27T14:54:41.058Z,33.55
2022-11-27T14:57:16.828Z,34.58
2022-11-27T14:59:46.153Z,32.08
2022-11-27T15:02:24.603Z,29.05
2022-11-27T15:05:05.612Z,23.45
2022-11-27T15:07:45.393Z,28.60
2022-11-27T15:10:24.726Z,33.40
2022-11-27T15:12:55.628Z,33.70
2022-11-27T15:15:27.937Z,164.57
2022-11-27T15:18:00.392Z,134.10
2022-11-27T15:20:36.701Z,105.90
2022-11-27T15:23:17.633Z,102.35
2022-11-27T15:25:49.359Z,87.25
2022-11-27T15:28:31.318Z,67.18
2022-11-27T15:31:00.916Z,51.88
2022-11-27T15:33:33.435Z,46.78
2022-11-27T15:36:17.537Z,40.22
2022-11-27T15:38:51.176Z,42.35
2022-11-27T15:41:26.531Z,51.45
2022-11-27T15:43:57.499Z,34.38
2022-11-27T15:46:30.529Z,37.43
2022-11-27T15:49:00.366Z,39.35
2022-11-27T15:51:30.519Z,40.28
2022-11-27T15:54:02.314Z,41.25
2022-11-27T15:56:31.743Z,41.83
2022-11-27T15:59:01.728Z,39.47
2022-11-27T16:01:31.076Z,39.38
2022-11-27T16:04:00.842Z,41.58
2022-11-27T16:06:30.106Z,47.90
2022-11-27T16:09:02.722Z,44.00
2022-11-27T16:11:33.256Z,43.30
2022-11-27T16:14:03.595Z,41.58
2022-11-27T16:16:33.140Z,43.47
2022-11-27T16:19:06.638Z,48.03
2022-11-27T16:21:36.672Z,40.78
2022-11-27T16:24:10.404Z,45.22
2022-11-27T16:26:39.837Z,41.13
2022-11-27T16:29:12.905Z,43.97
2022-11-27T16:31:42.968Z,37.75
2022-11-27T16:34:13.209Z,42.03
2022-11-27T16:36:44.023Z,39.63
2022-11-27T16:39:15.487Z,37.33
2022-11-27T16:44:16.455Z,39.47
2022-11-27T16:46:45.880Z,36.35
2022-11-27T16:49:15.611Z,33.47
2022-11-27T16:51:45.110Z,39.22
2022-11-27T16:54:16.311Z,36.28
2022-11-27T16:59:16.694Z,75.75
2022-11-27T17:01:46.682Z,51.90
2022-11-27T17:04:19.868Z,53.90
2022-11-27T17:06:50.555Z,53.55
2022-11-27T17:09:23.865Z,54.22
2022-11-27T17:11:53.122Z,64.60
2022-11-27T17:14:22.937Z,80.72
2022-11-27T17:16:52.540Z,69.88
2022-11-27T17:19:24.292Z,104.35
2022-11-27T17:21:53.603Z,88.93
2022-11-27T17:24:26.072Z,89.95
2022-11-27T17:26:56.628Z,83.43
2022-11-27T17:31:55.691Z,69.30
2022-11-27T17:34:25.693Z,70.47
2022-11-27T17:36:57.743Z,81.43
2022-11-27T17:39:29.214Z,69.95
2022-11-27T17:41:58.792Z,58.58
2022-11-27T17:44:28.682Z,72.55
2022-11-27T17:46:58.457Z,72.53
2022-11-27T17:49:28.238Z,67.97
2022-11-27T17:52:04.728Z,66.13
2022-11-27T17:54:37.486Z,58.03
2022-11-27T17:57:07.220Z,63.17
2022-11-27T17:59:37.091Z,56.17
2022-11-27T18:02:06.683Z,65.05
2022-11-27T18:04:36.807Z,67.03
2022-11-27T18:07:06.381Z,64.57
2022-11-27T18:09:37.843Z,66.32
2022-11-27T18:12:08.866Z,64.57
2022-11-27T18:17:07.707Z,64.85
2022-11-27T18:19:37.386Z,63.35
2022-11-27T18:22:10.120Z,70.20
2022-11-27T18:24:42.454Z,56.33
2022-11-27T18:27:12.587Z,62.05
2022-11-27T18:29:45.990Z,60.42
2022-11-27T18:32:17.171Z,49.60
2022-11-27T18:34:48.023Z,54.63
2022-11-27T18:37:17.621Z,51.90
2022-11-27T18:39:49.326Z,60.00
2022-11-27T18:42:18.871Z,51.85
2022-11-27T18:44:48.708Z,53.35
2022-11-27T18:47:18.096Z,49.53
2022-11-27T18:49:50.184Z,51.33
2022-11-27T18:52:19.975Z,54.72
2022-11-27T18:54:51.855Z,51.63
2022-11-27T18:57:21.555Z,54.63
2022-11-27T18:59:51.778Z,56.08
2022-11-27T19:02:21.340Z,55.10
2022-11-27T19:04:51.714Z,59.60
2022-11-27T19:07:21.180Z,54.50
2022-11-27T19:09:53.139Z,55.17
2022-11-27T19:12:22.747Z,52.22
2022-11-27T19:14:52.671Z,56.08
2022-11-27T19:17:25.681Z,47.10
2022-11-27T19:19:59.249Z,52.13
2022-11-27T19:22:28.522Z,53.65
2022-11-27T19:24:59.710Z,54.88
2022-11-27T19:27:28.995Z,53.97
2022-11-27T19:29:59.592Z,51.78
2022-11-27T19:32:29.054Z,55.13
2022-11-27T19:35:00.901Z,48.15
2022-11-27T19:37:34.955Z,47.00
2022-11-27T19:40:07.890Z,47.28
2022-11-27T19:42:37.205Z,51.45
2022-11-27T19:45:08.162Z,56.35
2022-11-27T19:47:37.748Z,53.90
2022-11-27T19:50:08.984Z,52.23
2022-11-27T19:52:38.268Z,49.63
2022-11-27T19:55:11.284Z,55.40
2022-11-27T19:57:40.598Z,52.40
2022-11-27T20:00:12.808Z,57.90
2022-11-27T20:02:42.146Z,52.15
2022-11-27T20:05:12.448Z,54.60
2022-11-27T20:07:41.920Z,55.20
2022-11-27T20:10:13.956Z,56.67
2022-11-27T20:12:43.505Z,51.08
2022-11-27T20:15:17.072Z,55.85
2022-11-27T20:17:46.947Z,58.30
2022-11-27T20:20:17.214Z,54.23
2022-11-27T20:22:46.647Z,53.65
2022-11-27T20:25:20.457Z,53.87
2022-11-27T20:27:50.892Z,55.28
2022-11-27T20:30:20.699Z,60.78
2022-11-27T20:32:50.226Z,55.72
2022-11-27T20:35:20.421Z,52.97
2022-11-27T20:37:49.880Z,54.47
2022-11-27T20:40:23.840Z,53.47
2022-11-27T20:42:53.488Z,48.97
2022-11-27T20:45:23.655Z,50.30
2022-11-27T20:47:53.422Z,50.70
2022-11-27T20:50:23.062Z,54.60
2022-11-27T20:52:52.674Z,60.90
2022-11-27T20:55:23.888Z,52.42
2022-11-27T20:57:54.958Z,58.03
2022-11-27T21:00:25.783Z,53.20
2022-11-27T21:02:55.050Z,55.45
2022-11-27T21:05:24.763Z,50.88
2022-11-27T21:07:54.274Z,61.35
2022-11-27T21:10:26.321Z,50.65
2022-11-27T21:12:55.573Z,50.92
2022-11-27T21:15:26.525Z,53.73
2022-11-27T21:17:55.910Z,54.50
2022-11-27T21:20:26.170Z,48.85
2022-11-27T21:22:55.562Z,55.42
2022-11-27T21:25:27.499Z,48.30
2022-11-27T21:27:58.439Z,54.70
2022-11-27T21:30:28.961Z,70.55
2022-11-27T21:32:58.902Z,69.13
2022-11-27T21:35:32.141Z,59.60
2022-11-27T21:38:03.308Z,63.42
2022-11-27T21:40:34.828Z,62.30
2022-11-27T21:43:04.286Z,63.63
2022-11-27T21:45:34.334Z,67.67
2022-11-27T21:48:03.807Z,67.55
2022-11-27T21:50:33.716Z,54.58
2022-11-27T21:53:03.279Z,77.50
2022-11-27T21:55:34.795Z,73.78
2022-11-27T21:58:04.034Z,65.97
2022-11-27T22:00:33.738Z,76.45
2022-11-27T22:03:03.905Z,77.72
2022-11-27T22:05:34.039Z,70.68
2022-11-27T22:08:03.606Z,80.07
2022-11-27T22:10:35.187Z,80.75
2022-11-27T22:13:04.448Z,74.43
2022-11-27T22:15:36.831Z,71.05
2022-11-27T22:18:06.525Z,80.30
2022-11-27T22:20:37.067Z,75.85
2022-11-27T22:23:06.636Z,73.00
2022-11-27T22:25:37.800Z,78.00
2022-11-27T22:28:07.297Z,91.38
2022-11-27T22:30:37.504Z,83.32
2022-11-27T22:33:07.248Z,97.53
2022-11-27T22:35:36.879Z,86.55
2022-11-27T22:38:06.360Z,84.05
2022-11-27T22:40:38.034Z,94.73
2022-11-27T22:43:07.407Z,97.50
2022-11-27T22:45:41.822Z,92.20
2022-11-27T22:48:11.347Z,90.78
2022-11-27T22:50:41.212Z,94.50
2022-11-27T22:53:10.959Z,96.60
2022-11-27T22:55:42.259Z,89.28
2022-11-27T23:00:41.164Z,81.93
2022-11-27T23:03:10.689Z,80.57
2022-11-27T23:05:45.006Z,94.85
2022-11-27T23:08:14.679Z,85.40
2022-11-27T23:10:46.748Z,80.00
2022-11-27T23:13:16.986Z,79.72
2022-11-27T23:15:47.563Z,79.35
2022-11-27T23:18:17.355Z,81.43
2022-11-27T23:20:47.255Z,89.45
2022-11-27T23:23:16.758Z,98.95
2022-11-27T23:25:48.165Z,96.60
2022-11-27T23:28:17.739Z,87.40
2022-11-27T23:30:52.657Z,86.15
2022-11-27T23:36:02.635Z,86.80
2022-11-27T23:38:32.350Z,83.50
2022-11-27T23:41:11.486Z,84.20
2022-11-27T23:43:41.080Z,84.28
2022-11-27T23:46:13.135Z,81.60
2022-11-27T23:48:43.200Z,81.13
2022-11-27T23:51:14.310Z,83.68
2022-11-27T23:53:44.305Z,77.72
2022-11-27T23:56:17.784Z,73.53
2022-11-27T23:58:47.879Z,74.68
